Time;durP1;ratioP1;P1;durP2;ratioP2;P2;SDS_P1;SDS_P2;PMS_P1;PMS_P2;Temp;Humidity;BMP_temperature;BMP_pressure;BME280_temperature;BME280_humidity;BME280_pressure;Samples;Min_cycle;Max_cycle;Signal;HPM_P1;HPM_P2
2022/04/02 00:00:23;;;;;;;6.68;2.03;;;;;;;6.01;100.00;101691.09;5071485;28;20485;-85
2022/04/02 00:02:50;;;;;;;5.30;1.88;;;;;;;6.08;100.00;101720.53;5067728;28;20059;-85
2022/04/02 00:05:16;;;;;;;4.93;1.80;;;;;;;6.15;100.00;101747.41;5053641;28;20142;-85
2022/04/02 00:07:44;;;;;;;5.63;2.00;;;;;;;6.13;100.00;101734.41;5052005;28;20073;-85
2022/04/02 00:10:10;;;;;;;6.72;2.10;;;;;;;6.08;100.00;101731.81;5060116;28;20053;-85
2022/04/02 00:12:38;;;;;;;5.95;2.05;;;;;;;6.11;100.00;101743.06;5070496;28;20054;-83
2022/04/02 00:15:05;;;;;;;5.75;2.10;;;;;;;5.96;100.00;101729.22;5071900;28;20036;-83
2022/04/02 00:17:33;;;;;;;7.28;3.05;;;;;;;5.91;100.00;101736.16;5072398;28;20052;-83
2022/04/02 00:20:00;;;;;;;7.20;2.05;;;;;;;5.69;100.00;101737.94;5071658;28;20044;-84
2022/04/02 00:22:26;;;;;;;5.18;2.00;;;;;;;5.90;100.00;101752.63;5071178;28;20052;-84
2022/04/02 00:24:53;;;;;;;6.40;2.20;;;;;;;5.89;100.00;101758.69;5071720;28;20041;-83
2022/04/02 00:27:20;;;;;;;5.78;1.88;;;;;;;5.77;100.00;101732.72;5073259;28;20479;-83
2022/04/02 00:29:47;;;;;;;6.65;1.92;;;;;;;5.96;100.00;101716.22;5072753;28;20048;-85
2022/04/02 00:32:14;;;;;;;5.97;2.00;;;;;;;6.08;100.00;101734.41;5069319;28;20047;-84
2022/04/02 00:34:40;;;;;;;6.95;2.45;;;;;;;6.07;100.00;101724.88;5073275;28;20135;-83
2022/04/02 00:37:07;;;;;;;6.72;2.33;;;;;;;6.00;100.00;101701.50;5063885;28;20135;-84
2022/04/02 00:39:34;;;;;;;5.97;2.28;;;;;;;5.88;100.00;101700.63;5051043;28;20135;-84
2022/04/02 00:42:01;;;;;;;8.85;2.30;;;;;;;5.92;100.00;101708.44;5053809;28;20127;-84
2022/04/02 00:44:28;;;;;;;6.88;2.45;;;;;;;6.23;100.00;101767.31;5072371;28;20051;-84
2022/04/02 00:46:55;;;;;;;9.32;2.47;;;;;;;6.29;100.00;101760.38;5073293;28;20048;-84
2022/04/02 00:49:22;;;;;;;7.22;2.17;;;;;;;5.89;100.00;101704.94;5072140;28;20098;-84
2022/04/02 00:51:50;;;;;;;7.75;2.30;;;;;;;6.01;100.00;101731.84;5073004;28;20063;-85
2022/04/02 00:54:19;;;;;;;6.88;2.22;;;;;;;6.05;100.00;101743.94;5071160;28;20044;-84
2022/04/02 00:56:47;;;;;;;6.43;1.92;;;;;;;6.25;100.00;101759.47;5071948;28;20139;-84
2022/04/02 00:59:15;;;;;;;6.43;1.95;;;;;;;6.24;100.00;101756.03;5071701;28;20137;-84
2022/04/02 01:01:44;;;;;;;6.00;2.28;;;;;;;6.10;100.00;101734.41;5072989;28;20127;-84
2022/04/02 01:04:12;;;;;;;6.82;2.42;;;;;;;6.21;100.00;101757.78;5071423;28;20045;-85
2022/04/02 01:06:40;;;;;;;3.97;1.80;;;;;;;5.94;100.00;101728.34;5054918;28;20053;-84
2022/04/02 01:09:09;;;;;;;6.13;2.35;;;;;;;6.00;100.00;101737.88;5055983;28;20049;-83
2022/04/02 01:11:38;;;;;;;5.82;2.10;;;;;;;6.00;100.00;101746.56;5054968;28;20045;-84
2022/04/02 01:14:05;;;;;;;11.30;2.38;;;;;;;6.18;100.00;101742.16;5073208;28;20041;-83
2022/04/02 01:16:33;;;;;;;9.05;2.58;;;;;;;6.10;100.00;101737.00;5090257;28;20127;-84
2022/04/02 01:19:01;;;;;;;6.78;2.38;;;;;;;6.14;100.00;101745.66;5095454;28;20048;-84
2022/04/02 01:21:29;;;;;;;9.25;3.00;;;;;;;5.61;100.00;101691.19;5096225;28;20139;-84
2022/04/02 01:23:57;;;;;;;7.18;2.45;;;;;;;6.05;100.00;101754.34;5075364;28;20041;-84
2022/04/02 01:26:25;;;;;;;9.77;3.45;;;;;;;6.08;100.00;101764.75;5074661;28;20075;-84
2022/04/02 01:28:55;;;;;;;5.32;2.25;;;;;;;5.98;100.00;101737.88;5076526;28;20058;-84
2022/04/02 01:31:22;;;;;;;7.63;2.28;;;;;;;6.18;100.00;101757.78;5076566;28;20048;-84
2022/04/02 01:33:52;;;;;;;7.13;2.50;;;;;;;6.08;100.00;101746.53;5074713;28;20059;-83
2022/04/02 01:36:20;;;;;;;8.45;2.90;;;;;;;5.95;100.00;101752.59;5074846;28;20501;-84
2022/04/02 01:38:46;;;;;;;9.60;2.90;;;;;;;5.95;100.00;101756.09;5070758;28;20442;-83
2022/04/02 01:41:14;;;;;;;6.55;2.50;;;;;;;5.83;100.00;101756.97;5052126;28;20076;-84
2022/04/02 01:43:41;;;;;;;6.88;2.60;;;;;;;5.60;100.00;101745.75;5069414;28;20048;-83
2022/04/02 01:46:09;;;;;;;7.65;2.83;;;;;;;5.53;100.00;101737.06;5075075;28;20076;-83
2022/04/02 01:48:36;;;;;;;7.80;2.67;;;;;;;5.61;100.00;101739.66;5074884;28;20135;-83
2022/04/02 01:51:03;;;;;;;7.32;2.60;;;;;;;5.32;100.00;101719.78;5068396;28;20052;-83
2022/04/02 01:53:31;;;;;;;8.10;3.28;;;;;;;5.38;100.00;101737.06;5073601;28;20127;-84
2022/04/02 01:55:58;;;;;;;8.77;2.60;;;;;;;5.33;100.00;101760.47;5073908;28;20139;-83
2022/04/02 01:58:26;;;;;;;14.13;3.15;;;;;;;5.14;100.00;101749.19;5074592;28;20052;-83
2022/04/02 02:00:53;;;;;;;12.10;3.03;;;;;;;5.12;100.00;101763.91;5085936;28;20516;-83
2022/04/02 02:03:20;;;;;;;8.60;2.70;;;;;;;4.88;100.00;101752.59;5079804;28;20087;-83
2022/04/02 02:05:47;;;;;;;8.18;2.67;;;;;;;4.97;100.00;101769.91;5073536;28;20064;-84
2022/04/02 02:08:14;;;;;;;6.38;2.35;;;;;;;4.94;100.00;101750.03;5074899;28;20060;-84
2022/04/02 02:10:41;;;;;;;7.72;2.90;;;;;;;4.75;100.00;101743.06;5059411;28;20051;-83
2022/04/02 02:13:08;;;;;;;7.82;3.05;;;;;;;4.86;100.00;101751.72;5063670;28;20045;-84
2022/04/02 02:15:35;;;;;;;7.45;2.88;;;;;;;4.67;100.00;101718.81;5073501;28;20135;-83
2022/04/02 02:18:02;;;;;;;6.97;2.47;;;;;;;4.75;100.00;101730.94;5072901;28;20127;-83
2022/04/02 02:20:29;;;;;;;7.65;2.97;;;;;;;4.93;100.00;101768.19;5073939;28;20045;-83
2022/04/02 02:22:55;;;;;;;7.82;2.90;;;;;;;4.66;100.00;101758.59;5072681;28;20055;-83
2022/04/02 02:25:22;;;;;;;7.10;2.60;;;;;;;4.64;100.00;101763.78;5073372;28;20120;-83
2022/04/02 02:27:49;;;;;;;7.63;2.80;;;;;;;4.62;100.00;101769.81;5073501;28;20052;-84
2022/04/02 02:30:16;;;;;;;6.47;2.40;;;;;;;4.60;100.00;101769.81;5074436;28;20045;-84
2022/04/02 02:32:45;;;;;;;6.22;2.50;;;;;;;4.56;100.00;101783.63;5069512;28;20582;-84
2022/04/02 02:38:02;;;;;;;7.97;2.42;;;;;;;4.55;100.00;101794.84;5080187;28;20044;-83
2022/04/02 02:40:29;;;;;;;9.20;2.67;;;;;;;4.43;100.00;101781.88;5061937;28;20045;-84
2022/04/02 02:42:55;;;;;;;8.20;3.17;;;;;;;4.38;100.00;101787.88;5069278;28;20048;-84
2022/04/02 02:45:22;;;;;;;8.68;2.60;;;;;;;4.25;100.00;101791.28;5073990;28;20479;-84
2022/04/02 02:47:49;;;;;;;6.22;2.20;;;;;;;4.30;100.00;101799.06;5074924;28;20643;-84
2022/04/02 02:50:16;;;;;;;7.95;2.33;;;;;;;4.26;100.00;101797.31;5068886;28;20071;-84
2022/04/02 02:52:42;;;;;;;6.03;2.40;;;;;;;4.27;100.00;101793.88;5063661;28;20055;-84
2022/04/02 02:55:10;;;;;;;5.10;1.92;;;;;;;4.35;100.00;101787.00;5061791;28;20648;-83
2022/04/02 02:57:41;;;;;;;7.40;2.28;;;;;;;4.23;100.00;101767.03;5062472;28;20051;-85
2022/04/02 03:00:08;;;;;;;5.07;1.98;;;;;;;4.37;100.00;101793.03;5063318;28;20135;-84
2022/04/02 03:02:38;;;;;;;4.88;2.00;;;;;;;4.37;100.00;101801.72;5064354;28;20045;-83
2022/04/02 03:05:13;;;;;;;6.65;2.88;;;;;;;4.33;100.00;101793.91;5064121;28;20087;-83
2022/04/02 03:07:48;;;;;;;5.35;1.90;;;;;;;4.56;100.00;101814.75;5067581;28;20055;-84
2022/04/02 03:10:20;;;;;;;7.68;2.25;;;;;;;4.36;100.00;101788.75;5067218;28;20364;-84
2022/04/02 03:12:48;;;;;;;6.32;2.10;;;;;;;4.44;100.00;101800.00;5070392;28;20040;-84
2022/04/02 03:15:21;;;;;;;6.60;1.80;;;;;;;4.49;100.00;101806.06;5068112;28;20083;-84
2022/04/02 03:17:48;;;;;;;5.70;2.33;;;;;;;4.35;100.00;101789.59;5073684;28;20131;-84
2022/04/02 03:20:18;;;;;;;6.35;2.00;;;;;;;4.45;100.00;101812.13;5067308;28;20497;-84
2022/04/02 03:22:46;;;;;;;5.30;2.53;;;;;;;4.37;100.00;101808.59;5062937;28;20416;-83
2022/04/02 03:25:16;;;;;;;4.65;1.90;;;;;;;4.37;100.00;101812.09;5072686;28;20053;-84
2022/04/02 03:27:44;;;;;;;6.80;2.00;;;;;;;4.49;100.00;101826.81;5069481;28;20410;-83
2022/04/02 03:30:13;;;;;;;4.35;1.50;;;;;;;4.73;100.00;101828.69;5052910;28;20469;-83
2022/04/02 03:32:41;;;;;;;6.72;2.10;;;;;;;4.05;100.00;101746.22;5060837;28;20548;-83
2022/04/02 03:35:08;;;;;;;5.78;1.90;;;;;;;4.67;100.00;101814.81;5069639;28;20045;-83
2022/04/02 03:37:37;;;;;;;9.38;2.30;;;;;;;4.63;100.00;101839.00;5065052;28;20413;-84
2022/04/02 03:40:07;;;;;;;5.47;1.90;;;;;;;4.50;100.00;101822.53;5073547;28;20048;-84
2022/04/02 03:42:35;;;;;;;4.75;1.83;;;;;;;4.68;100.00;101819.16;5069221;28;20044;-83
2022/04/02 03:45:04;;;;;;;5.95;2.30;;;;;;;4.83;100.00;101831.31;5073347;28;20044;-83
2022/04/02 03:47:31;;;;;;;7.55;1.98;;;;;;;4.68;100.00;101817.41;5072359;28;20497;-84
2022/04/02 03:49:58;;;;;;;5.88;1.98;;;;;;;4.73;100.00;101830.41;5066954;28;20059;-84
2022/04/02 03:52:25;;;;;;;7.65;2.67;;;;;;;4.57;100.00;101813.91;5056780;28;20623;-84
2022/04/02 03:54:52;;;;;;;6.72;2.05;;;;;;;4.66;100.00;101839.03;5073374;28;20041;-84
2022/04/02 03:57:19;;;;;;;6.63;2.10;;;;;;;4.64;100.00;101831.25;5072247;28;20501;-84
2022/04/02 03:59:46;;;;;;;6.93;2.10;;;;;;;4.59;100.00;101822.56;5073220;28;20048;-83
2022/04/02 04:02:13;;;;;;;5.88;2.20;;;;;;;4.32;100.00;101808.59;5062885;28;20478;-83
2022/04/02 04:04:40;;;;;;;5.78;2.03;;;;;;;4.48;100.00;101827.69;5072115;28;20083;-83
2022/04/02 04:07:08;;;;;;;4.85;1.83;;;;;;;4.19;100.00;101820.59;5073007;28;20126;-83
2022/04/02 04:09:36;;;;;;;9.27;2.42;;;;;;;4.15;100.00;101810.22;5077585;28;20056;-83
2022/04/02 04:12:03;;;;;;;7.93;1.85;;;;;;;4.19;100.00;101792.09;5070825;28;20122;-83
2022/04/02 04:14:31;;;;;;;5.43;2.10;;;;;;;4.14;100.00;101844.75;5071795;28;20134;-83
2022/04/02 04:16:58;;;;;;;6.45;1.92;;;;;;;4.24;100.00;101841.38;5069065;28;20049;-84
2022/04/02 04:19:24;;;;;;;6.85;2.22;;;;;;;4.17;100.00;101830.09;5063393;28;20423;-84
2022/04/02 04:21:53;;;;;;;6.25;2.38;;;;;;;4.29;100.00;101837.09;5068202;28;20109;-83
2022/04/02 04:24:19;;;;;;;5.38;2.40;;;;;;;4.14;100.00;101809.38;5062185;28;20054;-83
2022/04/02 04:26:46;;;;;;;8.25;2.50;;;;;;;4.03;100.00;101817.91;5068331;28;20048;-83
2022/04/02 04:29:13;;;;;;;6.88;2.10;;;;;;;4.32;100.00;101839.72;5065791;28;20045;-83
2022/04/02 04:31:40;;;;;;;4.57;1.80;;;;;;;4.17;100.00;101821.47;5063236;28;20243;-83
2022/04/02 04:34:07;;;;;;;5.38;1.77;;;;;;;4.29;100.00;101813.75;5060952;28;20200;-84
2022/04/02 04:36:34;;;;;;;6.63;2.30;;;;;;;4.30;100.00;101807.72;5070026;28;20398;-83
2022/04/02 04:39:00;;;;;;;6.88;2.38;;;;;;;4.31;100.00;101806.00;5069219;28;20495;-83
2022/04/02 04:41:32;;;;;;;7.35;1.90;;;;;;;4.62;100.00;101855.41;5064537;28;20554;-82
2022/04/02 04:43:59;;;;;;;3.75;1.80;;;;;;;4.86;100.00;101849.47;5071392;28;20071;-83
2022/04/02 04:46:25;;;;;;;6.03;2.00;;;;;;;4.43;100.00;101842.38;5067079;28;20131;-84
2022/04/02 04:48:53;;;;;;;5.00;1.77;;;;;;;4.52;100.00;101859.72;5066914;28;20406;-84
2022/04/02 04:51:23;;;;;;;6.97;2.20;;;;;;;4.61;100.00;101872.72;5073351;28;20063;-84
2022/04/02 04:53:50;;;;;;;7.78;2.15;;;;;;;4.73;100.00;101874.53;5063658;28;20053;-84
2022/04/02 04:56:17;;;;;;;7.05;2.38;;;;;;;4.77;100.00;101868.47;5054867;28;20140;-84
2022/04/02 04:58:44;;;;;;;6.15;1.77;;;;;;;4.65;100.00;101853.72;5056230;28;20045;-84
2022/04/02 05:01:12;;;;;;;9.95;1.95;;;;;;;4.85;100.00;101871.09;5068353;28;20058;-84
2022/04/02 05:03:40;;;;;;;6.22;2.20;;;;;;;4.87;100.00;101878.03;5073366;28;20049;-84
2022/04/02 05:06:11;;;;;;;5.38;1.70;;;;;;;5.04;100.00;101880.69;5063138;28;20094;-84
2022/04/02 05:08:38;;;;;;;6.22;1.85;;;;;;;4.64;100.00;101826.06;5067211;28;20048;-85
2022/04/02 05:11:05;;;;;;;5.95;2.08;;;;;;;4.83;100.00;101889.25;5072271;28;20143;-85
2022/04/02 05:13:32;;;;;;;5.25;2.00;;;;;;;4.89;100.00;101872.84;5062448;28;20051;-85
2022/04/02 05:15:59;;;;;;;7.47;1.90;;;;;;;4.89;100.00;101868.53;5066369;28;20049;-85
2022/04/02 05:18:27;;;;;;;7.22;2.97;;;;;;;4.71;100.00;101878.81;5068562;28;20086;-84
2022/04/02 05:20:53;;;;;;;6.38;2.08;;;;;;;4.91;100.00;101890.16;5067982;28;20051;-85
2022/04/02 05:23:22;;;;;;;3.97;1.77;;;;;;;4.69;100.00;101871.03;5069859;28;20059;-84
2022/04/02 05:25:49;;;;;;;6.70;2.05;;;;;;;4.89;100.00;101886.69;5066758;28;20044;-84
2022/04/02 05:28:15;;;;;;;4.72;1.88;;;;;;;4.73;100.00;101877.97;5070191;28;20103;-84
2022/04/02 05:30:43;;;;;;;7.53;2.25;;;;;;;4.62;100.00;101886.53;5065839;28;20045;-84
2022/04/02 05:33:11;;;;;;;7.90;2.25;;;;;;;4.02;100.00;101835.19;5067439;28;20045;-84
2022/04/02 05:35:58;;;;;;;8.05;2.40;;;;;;;4.54;100.00;101895.16;5070540;28;20045;-84
2022/04/02 05:38:24;;;;;;;8.18;2.03;;;;;;;4.73;100.00;101908.25;5065479;28;20048;-84
2022/04/02 05:40:51;;;;;;;7.30;2.17;;;;;;;4.65;100.00;101903.00;5068582;28;20045;-84
2022/04/02 05:43:18;;;;;;;7.18;2.17;;;;;;;4.75;100.00;101922.09;5067482;28;20049;-83
2022/04/02 05:45:46;;;;;;;5.03;1.65;;;;;;;4.80;100.00;101911.72;5065391;28;20650;-83
2022/04/02 05:48:14;;;;;;;7.30;1.98;;;;;;;4.60;100.00;101919.41;5056840;28;20135;-83
2022/04/02 05:50:42;;;;;;;7.38;2.47;;;;;;;4.59;100.00;101918.53;5059746;28;20055;-85
2022/04/02 05:53:08;;;;;;;6.07;2.17;;;;;;;4.64;100.00;101916.84;5066443;28;20402;-86
2022/04/02 05:55:36;;;;;;;6.05;2.30;;;;;;;4.74;100.00;101922.94;5065572;28;20551;-84
2022/04/02 05:58:04;;;;;;;6.25;2.30;;;;;;;4.69;100.00;101927.22;5065523;28;20106;-84
2022/04/02 06:00:31;;;;;;;6.95;2.55;;;;;;;4.72;100.00;101935.03;5062206;28;20049;-84
2022/04/02 06:03:03;;;;;;;6.03;1.98;;;;;;;4.53;100.00;101908.09;5064449;28;20045;-84
2022/04/02 06:05:30;;;;;;;6.20;2.05;;;;;;;4.66;100.00;101935.88;5066969;28;20074;-84
2022/04/02 06:07:58;;;;;;;6.47;2.15;;;;;;;4.54;100.00;101912.44;5067783;28;20072;-84
2022/04/02 06:10:25;;;;;;;7.75;2.15;;;;;;;4.59;100.00;101931.50;5064604;28;20405;-87
2022/04/02 06:12:52;;;;;;;6.82;2.00;;;;;;;4.59;100.00;101918.53;5063119;28;20602;-84
2022/04/02 06:15:19;;;;;;;6.53;2.50;;;;;;;4.50;100.00;101923.69;5065160;28;20067;-84
2022/04/02 06:17:46;;;;;;;6.88;2.85;;;;;;;4.66;100.00;101938.47;5070139;28;20041;-85
2022/04/02 06:20:13;;;;;;;6.68;2.63;;;;;;;4.78;100.00;101936.78;5066995;28;20056;-84
2022/04/02 06:22:41;;;;;;;7.78;2.47;;;;;;;4.77;100.00;101940.28;5082140;28;20024;-84
2022/04/02 06:25:08;;;;;;;7.40;2.60;;;;;;;4.79;100.00;101954.13;5067356;28;20049;-84
2022/04/02 06:27:46;;;;;;;8.13;2.28;;;;;;;4.84;100.00;101953.28;5062583;28;20052;-83
2022/04/02 06:30:21;;;;;;;6.20;2.22;;;;;;;5.18;100.00;101971.63;5065283;28;20059;-83
2022/04/02 06:32:54;;;;;;;7.80;2.60;;;;;;;5.01;100.00;101963.75;5068599;28;20088;-83
2022/04/02 06:35:21;;;;;;;6.70;2.25;;;;;;;5.03;100.00;101979.31;5061495;28;20049;-83
2022/04/02 06:37:48;;;;;;;9.45;2.92;;;;;;;5.12;100.00;101981.97;5063189;28;20059;-84
2022/04/02 06:40:16;;;;;;;7.30;2.10;;;;;;;5.30;100.00;101987.25;5062593;28;20527;-84
2022/04/02 06:42:43;;;;;;;6.80;2.55;;;;;;;5.29;100.00;101969.06;5065843;28;20788;-84
2022/04/02 06:45:10;;;;;;;7.22;2.53;;;;;;;5.06;100.00;101962.03;5065814;28;20394;-84
2022/04/02 06:47:37;;;;;;;8.48;2.92;;;;;;;5.12;100.00;101980.25;5065065;28;20045;-84
2022/04/02 06:50:10;;;;;;;8.02;2.70;;;;;;;4.92;100.00;101968.88;5065756;28;20053;-84
2022/04/02 06:52:37;;;;;;;8.85;2.90;;;;;;;5.50;100.00;101989.91;5063836;28;20052;-85
2022/04/02 06:55:04;;;;;;;8.30;2.83;;;;;;;5.26;100.00;102006.28;5061608;28;20409;-84
2022/04/02 06:57:31;;;;;;;6.68;2.38;;;;;;;5.22;100.00;101988.94;5063331;28;20839;-84
2022/04/02 06:59:58;;;;;;;7.72;3.10;;;;;;;5.42;100.00;101994.22;5068931;28;20478;-84
2022/04/02 07:02:24;;;;;;;12.00;3.65;;;;;;;5.42;100.00;102001.13;5061424;28;20055;-84
2022/04/02 07:04:51;;;;;;;7.82;2.90;;;;;;;5.42;100.00;101995.94;5060859;28;20139;-85
2022/04/02 07:07:19;;;;;;;6.38;2.58;;;;;;;5.68;100.00;102002.13;5062149;28;20074;-84
2022/04/02 07:09:46;;;;;;;8.20;2.78;;;;;;;5.66;100.00;101995.16;5062551;28;20059;-84
2022/04/02 07:12:13;;;;;;;9.07;3.10;;;;;;;6.12;100.00;102002.22;5062562;28;20628;-84
2022/04/02 07:14:40;;;;;;;8.23;2.97;;;;;;;6.33;100.00;101997.03;5064608;28;20059;-85
2022/04/02 07:17:06;;;;;;;8.23;3.78;;;;;;;6.19;100.00;102003.97;5059811;28;20056;-84
2022/04/02 07:19:34;;;;;;;8.60;3.63;;;;;;;6.14;100.00;102023.91;5066192;28;20058;-83
2022/04/02 07:22:02;;;;;;;8.57;3.33;;;;;;;6.21;100.00;102029.09;5059335;28;20044;-83
2022/04/02 07:24:31;;;;;;;8.30;2.78;;;;;;;6.09;100.00;101990.06;5065121;28;20049;-84
2022/04/02 07:26:59;;;;;;;9.13;3.15;;;;;;;6.31;100.00;102006.59;5060031;28;20083;-84
2022/04/02 07:29:26;;;;;;;7.65;2.80;;;;;;;6.59;100.00;102012.66;5064702;28;20573;-84
2022/04/02 07:31:53;;;;;;;8.98;3.00;;;;;;;6.79;100.00;102030.00;5066873;28;20057;-84
2022/04/02 07:34:21;;;;;;;8.50;3.17;;;;;;;6.49;100.00;101973.63;5065769;28;20106;-84
2022/04/02 07:37:19;;;;;;;7.32;2.97;;;;;;;7.55;100.00;102028.91;5065376;28;20044;-84
2022/04/02 07:40:10;;;;;;;9.18;3.40;;;;;;;7.33;100.00;102015.09;5062250;28;20151;-84
2022/04/02 07:42:43;;;;;;;10.73;3.85;;;;;;;7.66;100.00;102017.56;5075357;28;20084;-84
2022/04/02 07:45:13;;;;;;;7.10;2.53;;;;;;;7.59;100.00;102029.75;5060376;28;20041;-84
2022/04/02 07:47:52;;;;;;;11.98;3.58;;;;;;;7.53;100.00;102019.38;5071365;28;20052;-84
2022/04/02 07:50:25;;;;;;;12.98;3.30;;;;;;;7.89;100.00;102043.50;5072909;28;20044;-84
2022/04/02 07:52:54;;;;;;;5.47;2.28;;;;;;;7.84;100.00;102040.06;5059196;28;20045;-84
2022/04/02 07:55:21;;;;;;;9.57;3.50;;;;;;;8.54;100.00;102029.19;5077115;28;20055;-84
2022/04/02 07:57:52;;;;;;;9.85;2.83;;;;;;;8.84;100.00;102044.59;5063235;28;20136;-84
2022/04/02 08:00:21;;;;;;;10.25;4.63;;;;;;;9.06;100.00;102033.03;5064457;28;20453;-84
2022/04/02 08:02:50;;;;;;;9.50;3.10;;;;;;;9.88;100.00;102032.91;5062505;28;20479;-84
2022/04/02 08:05:21;;;;;;;10.00;3.00;;;;;;;9.74;100.00;102036.59;5060224;28;20059;-84
2022/04/02 08:07:52;;;;;;;9.48;3.28;;;;;;;9.85;100.00;102037.31;5061757;28;20530;-85
2022/04/02 08:10:24;;;;;;;7.47;2.65;;;;;;;10.37;100.00;102023.47;5056064;28;20053;-86
2022/04/02 08:12:54;;;;;;;8.95;2.60;;;;;;;10.31;100.00;102023.59;5062508;28;20066;-86
2022/04/02 08:15:22;;;;;;;8.45;2.95;;;;;;;10.50;100.00;102033.75;5070937;28;20040;-86
2022/04/02 08:17:54;;;;;;;10.73;2.92;;;;;;;10.96;100.00;102023.34;5056020;28;20109;-86
2022/04/02 08:20:23;;;;;;;10.38;2.88;;;;;;;10.97;100.00;102039.94;5063205;28;20407;-86
2022/04/02 08:22:50;;;;;;;9.10;2.55;;;;;;;11.29;100.00;102041.94;5060820;28;20048;-86
2022/04/02 08:25:17;;;;;;;12.10;2.55;;;;;;;11.36;96.69;102037.44;5072526;28;20052;-86
2022/04/02 08:28:01;;;;;;;8.23;2.58;;;;;;;11.12;100.00;102026.53;5071349;28;20056;-85
2022/04/02 08:30:32;;;;;;;8.50;2.50;;;;;;;10.91;98.96;102037.44;5072436;28;20509;-86
2022/04/02 08:33:33;;;;;;;5.90;2.15;;;;;;;11.65;100.00;102039.47;5071179;28;20055;-86
2022/04/02 08:36:29;;;;;;;6.53;1.98;;;;;;;11.59;95.39;102048.31;5062867;28;20478;-86
2022/04/02 08:39:14;;;;;;;7.38;2.40;;;;;;;11.72;99.17;102053.28;5068866;28;20523;-87
2022/04/02 08:42:09;;;;;;;8.70;2.47;;;;;;;12.00;93.21;102060.59;5071196;28;20059;-87
2022/04/02 08:44:54;;;;;;;7.10;2.03;;;;;;;10.83;100.00;102064.59;5071986;28;20046;-87
2022/04/02 08:47:59;;;;;;;13.52;2.72;;;;;;;10.88;91.82;102064.53;5071928;28;20062;-87
2022/04/02 08:50:36;;;;;;;8.32;2.25;;;;;;;10.31;96.16;102056.72;5071938;28;20052;-87
2022/04/02 08:53:19;;;;;;;13.00;3.28;;;;;;;9.99;97.61;102027.53;5070588;28;20057;-87
2022/04/02 08:55:50;;;;;;;7.10;2.70;;;;;;;10.98;93.10;102062.63;5069938;28;20044;-87
2022/04/02 08:58:43;;;;;;;5.88;2.15;;;;;;;11.34;94.25;102054.97;5071683;28;20052;-86
2022/04/02 09:01:11;;;;;;;9.63;3.55;;;;;;;10.04;92.85;102041.41;5072273;28;20044;-86
2022/04/02 09:03:56;;;;;;;8.02;2.00;;;;;;;11.55;95.56;102067.63;5071273;28;20045;-87
2022/04/02 09:06:45;;;;;;;7.88;2.13;;;;;;;9.98;93.94;102085.09;5072523;28;20049;-87
2022/04/02 09:09:45;;;;;;;4.32;1.65;;;;;;;11.00;89.96;102081.81;5068405;28;20131;-86
2022/04/02 09:12:27;;;;;;;9.65;1.80;;;;;;;10.88;86.05;102089.88;5068445;28;20052;-86
2022/04/02 09:15:13;;;;;;;10.07;2.58;;;;;;;9.82;92.87;102093.16;5072339;28;20119;-87
2022/04/02 09:18:21;;;;;;;6.68;1.77;;;;;;;9.47;91.83;102084.00;5071667;28;20040;-86
2022/04/02 09:21:00;;;;;;;5.68;2.00;;;;;;;9.11;98.42;102091.34;5071750;28;20045;-86
2022/04/02 09:23:45;;;;;;;7.20;2.13;;;;;;;9.10;100.00;102093.94;5074750;28;20048;-86
2022/04/02 09:26:46;;;;;;;7.15;2.08;;;;;;;9.17;100.00;102092.16;5074330;28;20045;-85
2022/04/02 09:29:16;;;;;;;8.48;1.92;;;;;;;9.17;96.02;102100.88;5075070;28;20048;-86
2022/04/02 09:31:43;;;;;;;9.02;2.08;;;;;;;8.17;100.00;102102.47;5071494;28;21163;-85
2022/04/02 09:34:28;;;;;;;9.95;1.95;;;;;;;8.99;100.00;102090.59;5073382;28;20136;-85
2022/04/02 09:37:07;;;;;;;8.05;2.53;;;;;;;8.97;99.37;102098.44;5069651;28;20032;-85
2022/04/02 09:39:55;;;;;;;7.15;2.00;;;;;;;9.76;97.83;102089.78;5069710;28;20055;-85
2022/04/02 09:42:43;;;;;;;9.35;3.20;;;;;;;9.65;99.60;102084.63;5066316;28;20045;-85
2022/04/02 09:45:13;;;;;;;7.60;2.20;;;;;;;9.37;96.57;102078.91;5073505;28;20136;-85
2022/04/02 09:48:01;;;;;;;5.97;2.17;;;;;;;9.32;99.39;102107.69;5073510;28;20506;-85
2022/04/02 09:50:29;;;;;;;6.88;2.05;;;;;;;10.02;91.21;102092.91;5071013;28;20050;-84
2022/04/02 09:52:59;;;;;;;5.82;1.88;;;;;;;10.34;87.36;102099.47;5074122;28;20379;-85
2022/04/02 09:55:28;;;;;;;12.52;2.78;;;;;;;10.71;86.81;102091.03;5063648;28;20546;-84
2022/04/02 09:58:04;;;;;;;9.88;2.30;;;;;;;10.43;84.82;102112.41;5067170;28;20119;-85
2022/04/02 10:00:57;;;;;;;9.05;2.38;;;;;;;9.79;86.81;102103.69;5067842;28;20030;-85
2022/04/02 10:03:57;;;;;;;5.53;2.05;;;;;;;10.20;87.05;102090.94;5074522;28;20140;-85
2022/04/02 10:06:40;;;;;;;4.57;1.48;;;;;;;9.77;84.20;102092.34;5063280;28;20044;-85
2022/04/02 10:09:14;;;;;;;6.72;1.65;;;;;;;10.11;85.81;102107.63;5062747;28;20049;-87
2022/04/02 10:12:01;;;;;;;6.60;1.70;;;;;;;10.07;82.12;102096.34;5071956;28;20045;-85
2022/04/02 10:14:30;;;;;;;7.07;2.17;;;;;;;10.63;81.35;102108.63;5072790;28;20493;-85
2022/04/02 10:17:09;;;;;;;8.50;2.45;;;;;;;10.67;80.05;102091.97;5073909;28;20040;-86
2022/04/02 10:19:41;;;;;;;6.10;1.83;;;;;;;11.11;79.04;102087.72;5073967;28;20136;-86
2022/04/02 10:22:10;;;;;;;5.30;1.52;;;;;;;11.51;77.37;102107.06;5073569;28;20057;-86
2022/04/02 10:24:38;;;;;;;7.70;2.20;;;;;;;11.35;72.72;102104.75;5073127;28;20052;-86
2022/04/02 10:27:07;;;;;;;11.15;2.10;;;;;;;11.00;79.89;102105.41;5073438;28;20048;-86
2022/04/02 10:29:59;;;;;;;7.93;2.47;;;;;;;11.13;78.57;102111.28;5073584;28;20048;-87
2022/04/02 10:35:50;;;;;;;12.55;2.08;;;;;;;10.50;74.75;102117.53;5073608;28;20056;-89
2022/04/02 10:38:39;;;;;;;6.45;1.75;;;;;;;10.69;71.30;102118.13;5085338;28;20500;-90
2022/04/02 10:41:11;;;;;;;11.95;2.22;;;;;;;10.21;71.87;102113.56;5094266;28;20051;-88
2022/04/02 10:43:41;;;;;;;4.82;1.60;;;;;;;10.25;71.97;102110.91;5077621;28;20053;-89
2022/04/02 10:46:08;;;;;;;12.77;2.17;;;;;;;10.63;76.50;102101.63;5073000;28;20398;-88
2022/04/02 10:48:49;;;;;;;6.30;1.73;;;;;;;10.55;75.25;102110.50;5074235;28;20055;-88
2022/04/02 10:51:21;;;;;;;6.10;1.65;;;;;;;10.60;74.08;102095.56;5074738;28;20068;-88
2022/04/02 10:53:58;;;;;;;9.00;2.58;;;;;;;10.63;76.94;102092.91;5070002;28;20051;-89
2022/04/02 10:56:31;;;;;;;8.85;2.38;;;;;;;10.80;72.70;102101.34;5073304;28;20051;-87
2022/04/02 10:58:58;;;;;;;;;;;;;;;10.95;74.33;102108.09;5073917;28;20048;-88
2022/04/02 11:01:26;;;;;;;9.20;2.10;;;;;;;10.93;74.21;102086.28;5074674;28;19959;-88
2022/04/02 11:03:57;;;;;;;6.53;1.73;;;;;;;10.41;72.88;102092.38;5072917;28;20118;-89
2022/04/02 11:06:44;;;;;;;13.52;2.72;;;;;;;10.44;75.69;102115.91;5073482;28;20044;-88
2022/04/02 11:09:27;;;;;;;6.97;1.80;;;;;;;10.68;75.13;102109.41;5075146;28;20059;-86
2022/04/02 11:11:58;;;;;;;5.80;1.90;;;;;;;10.23;77.75;102101.31;5072852;28;20405;-86
2022/04/02 11:14:25;;;;;;;7.97;1.90;;;;;;;9.93;80.20;102081.69;5072131;28;20132;-86
2022/04/02 11:16:52;;;;;;;4.57;1.80;;;;;;;9.79;83.28;102087.09;5073169;28;20540;-85
2022/04/02 11:22:08;;;;;;;9.75;2.00;;;;;;;9.82;86.77;102101.00;5064450;28;20135;-84
2022/04/02 11:24:50;;;;;;;7.25;1.80;;;;;;;10.55;90.11;102074.72;5068894;28;20136;-82
2022/04/02 11:27:19;;;;;;;8.23;1.95;;;;;;;10.86;85.13;102107.38;5062096;28;20497;-85
2022/04/02 11:29:50;;;;;;;5.45;1.80;;;;;;;10.53;82.62;102093.94;5072658;28;20039;-84
2022/04/02 11:32:24;;;;;;;5.28;1.40;;;;;;;10.32;83.50;102100.38;5060690;28;20447;-84
2022/04/02 11:34:55;;;;;;;5.45;1.70;;;;;;;9.59;82.20;102097.81;5053355;28;20131;-86
2022/04/02 11:37:31;;;;;;;8.05;2.17;;;;;;;9.06;79.39;102119.25;5068764;28;20044;-84
2022/04/02 11:40:04;;;;;;;5.30;1.58;;;;;;;9.87;79.52;102124.50;5067877;28;20050;-83
2022/04/02 11:42:34;;;;;;;6.32;1.73;;;;;;;9.95;74.10;102075.56;5079920;28;20467;-84
2022/04/02 11:45:08;;;;;;;4.97;1.45;;;;;;;10.04;75.07;102111.22;5072400;28;20048;-83
2022/04/02 11:47:37;;;;;;;4.55;1.50;;;;;;;9.60;67.59;102113.47;5071612;28;20096;-84
2022/04/02 11:50:08;;;;;;;6.05;1.77;;;;;;;9.81;72.66;102120.22;5067356;28;20152;-85